Terminal Aerodrome Forecast
Issued by NWS

Home | Current Version | Previous Version | Text Only | Print | Product List | Glossary On
Versions: 1 2 3 4 5 6 7 8 9 10 11 12 13 14 15 16
000
FTUS41 KBTV 201900 AAA
TAFRUT
TAF AMD
KRUT 201927Z 2019/2118 19006KT P6SM OVC035
     FM202100 23012G24KT P6SM OVC035
     FM210100 19010KT P6SM BKN035
      AMD LTD TO CLD VIS AND WIND=

USA.gov is the U.S. government's official web portal to all federal, state and local government web resources and services.